createdAt,value
2023-04-07T00:00:32.598Z,13.50
2023-04-07T00:03:02.667Z,12.40
2023-04-07T00:05:31.321Z,13.10
2023-04-07T00:07:59.431Z,13.20
2023-04-07T00:10:29.088Z,13.80
2023-04-07T00:12:57.008Z,14.90
2023-04-07T00:15:25.354Z,14.00
2023-04-07T00:17:58.582Z,13.20
2023-04-07T00:20:26.825Z,14.80
2023-04-07T00:22:55.004Z,12.40
2023-04-07T00:25:23.185Z,13.60
2023-04-07T00:27:51.868Z,13.20
2023-04-07T00:30:21.168Z,13.40
2023-04-07T00:32:51.562Z,11.90
2023-04-07T00:35:20.066Z,11.90
2023-04-07T00:37:51.405Z,11.60
2023-04-07T00:40:19.480Z,12.30
2023-04-07T00:42:47.447Z,11.30
2023-04-07T00:45:17.262Z,12.40
2023-04-07T00:47:45.236Z,12.70
2023-04-07T00:50:13.214Z,13.80
2023-04-07T00:52:41.457Z,14.60
2023-04-07T00:55:10.477Z,16.70
2023-04-07T00:57:39.061Z,20.90
2023-04-07T01:00:10.070Z,22.00
2023-04-07T01:02:48.709Z,23.40
2023-04-07T01:05:23.681Z,22.30
2023-04-07T01:08:01.436Z,22.40
2023-04-07T01:10:52.911Z,22.70
2023-04-07T01:13:31.504Z,22.60
2023-04-07T01:16:28.546Z,19.10
2023-04-07T01:18:59.509Z,18.70
2023-04-07T01:21:28.775Z,19.00
2023-04-07T01:24:16.167Z,18.00
2023-04-07T01:26:44.467Z,14.90
2023-04-07T01:31:47.940Z,15.90
2023-04-07T01:34:16.165Z,16.20
2023-04-07T01:36:44.510Z,16.40
2023-04-07T01:39:13.045Z,16.30
2023-04-07T01:41:41.797Z,14.80
2023-04-07T01:44:09.873Z,15.50
2023-04-07T01:46:38.701Z,14.80
2023-04-07T01:49:07.059Z,16.30
2023-04-07T01:51:35.230Z,17.10
2023-04-07T01:54:03.510Z,17.30
2023-04-07T01:56:31.501Z,17.00
2023-04-07T01:59:01.301Z,16.60
2023-04-07T02:01:30.565Z,16.00
2023-04-07T02:04:07.885Z,16.10
2023-04-07T02:06:41.059Z,15.90
2023-04-07T02:09:11.428Z,15.10
2023-04-07T02:11:39.542Z,14.70
2023-04-07T02:14:08.163Z,14.50
2023-04-07T02:16:47.537Z,15.20
2023-04-07T02:19:17.315Z,15.40
2023-04-07T02:21:46.812Z,15.00
2023-04-07T02:24:24.814Z,14.70
2023-04-07T02:26:52.886Z,13.80
2023-04-07T02:29:21.006Z,14.20
2023-04-07T02:31:50.104Z,14.50
2023-04-07T02:34:18.430Z,13.70
2023-04-07T02:36:46.420Z,14.60
2023-04-07T02:39:15.089Z,14.00
2023-04-07T02:41:43.061Z,13.80
2023-04-07T02:44:11.254Z,14.00
2023-04-07T02:46:39.343Z,13.80
2023-04-07T02:49:08.173Z,14.10
2023-04-07T02:51:36.438Z,13.90
2023-04-07T02:54:05.780Z,14.50
2023-04-07T02:56:33.898Z,13.50
2023-04-07T02:59:07.850Z,14.50
2023-04-07T03:01:40.686Z,12.40
2023-04-07T03:04:09.255Z,12.60
2023-04-07T03:06:37.309Z,13.00
2023-04-07T03:09:17.271Z,10.20
2023-04-07T03:11:45.346Z,13.10
2023-04-07T03:14:13.800Z,13.10
2023-04-07T03:16:51.028Z,12.60
2023-04-07T03:19:22.391Z,14.50
2023-04-07T03:21:51.782Z,13.20
2023-04-07T03:24:21.765Z,13.30
2023-04-07T03:26:51.426Z,13.80
2023-04-07T03:29:24.433Z,12.70
2023-04-07T03:31:53.088Z,12.80
2023-04-07T03:34:23.512Z,12.30
2023-04-07T03:36:51.537Z,13.70
2023-04-07T03:39:19.749Z,12.70
2023-04-07T03:41:48.044Z,12.70
2023-04-07T03:44:16.300Z,13.70
2023-04-07T03:46:45.735Z,13.50
2023-04-07T03:49:14.916Z,13.50
2023-04-07T03:51:43.643Z,15.10
2023-04-07T03:54:16.280Z,15.00
2023-04-07T03:56:47.021Z,16.10
2023-04-07T03:59:22.979Z,15.10
2023-04-07T04:01:55.951Z,15.60
2023-04-07T04:04:24.890Z,13.30
2023-04-07T04:06:53.803Z,15.50
2023-04-07T04:09:35.174Z,14.70
2023-04-07T04:12:03.203Z,14.80
2023-04-07T04:14:35.781Z,15.00
2023-04-07T04:17:05.546Z,14.90
2023-04-07T04:19:41.034Z,13.80
2023-04-07T04:22:15.874Z,14.50
2023-04-07T04:24:50.312Z,13.10
2023-04-07T04:27:20.621Z,13.70
2023-04-07T04:29:52.692Z,12.80
2023-04-07T04:32:25.266Z,13.20
2023-04-07T04:34:54.353Z,12.50
2023-04-07T04:37:22.886Z,14.70
2023-04-07T04:39:51.637Z,13.70
2023-04-07T04:42:22.893Z,12.80
2023-04-07T04:44:51.550Z,13.10
2023-04-07T04:47:25.684Z,13.40
2023-04-07T04:49:53.743Z,13.00
2023-04-07T04:52:22.049Z,12.50
2023-04-07T04:54:52.444Z,13.20
2023-04-07T04:57:21.445Z,13.30
2023-04-07T04:59:49.932Z,13.20
2023-04-07T05:02:18.030Z,13.90
2023-04-07T05:04:46.840Z,14.60
2023-04-07T05:07:24.893Z,15.00
2023-04-07T05:09:56.932Z,14.70
2023-04-07T05:12:25.266Z,15.60
2023-04-07T05:15:00.141Z,15.20
2023-04-07T05:17:29.234Z,14.90
2023-04-07T05:19:58.484Z,16.90
2023-04-07T05:22:41.675Z,18.90
2023-04-07T05:25:16.205Z,17.60
2023-04-07T05:27:45.981Z,16.40
2023-04-07T05:30:22.325Z,20.50
2023-04-07T05:32:53.069Z,17.90
2023-04-07T05:38:05.507Z,16.10
2023-04-07T05:40:36.937Z,17.20
2023-04-07T05:43:06.198Z,15.80
2023-04-07T05:45:35.103Z,16.30
2023-04-07T05:48:03.739Z,16.60
2023-04-07T05:50:39.437Z,15.60
2023-04-07T05:53:10.686Z,17.50
2023-04-07T05:55:45.038Z,17.80
2023-04-07T05:58:34.234Z,15.40
2023-04-07T06:01:02.661Z,14.40
2023-04-07T06:03:31.618Z,14.20
2023-04-07T06:06:06.155Z,13.70
2023-04-07T06:08:34.162Z,14.30
2023-04-07T06:11:02.581Z,14.60
2023-04-07T06:13:31.305Z,14.60
2023-04-07T06:15:59.857Z,14.40
2023-04-07T06:18:31.691Z,15.20
2023-04-07T06:21:00.321Z,14.80
2023-04-07T06:23:35.970Z,15.80
2023-04-07T06:26:11.316Z,15.30
2023-04-07T06:28:40.754Z,16.10
2023-04-07T06:31:09.140Z,16.40
2023-04-07T06:33:38.869Z,17.70
2023-04-07T06:36:06.964Z,16.50
2023-04-07T06:38:37.315Z,16.90
2023-04-07T06:41:06.400Z,18.10
2023-04-07T06:43:36.000Z,18.70
2023-04-07T06:46:05.653Z,19.30
2023-04-07T06:48:34.150Z,18.00
2023-04-07T06:51:03.002Z,18.60
2023-04-07T06:53:31.087Z,20.80
2023-04-07T06:56:11.736Z,20.70
2023-04-07T06:58:39.978Z,18.60
2023-04-07T07:01:09.058Z,19.20
2023-04-07T07:03:40.327Z,18.40
2023-04-07T07:06:08.519Z,17.20
2023-04-07T07:08:36.883Z,18.10
2023-04-07T07:11:04.940Z,18.60
2023-04-07T07:13:33.446Z,19.00
2023-04-07T07:16:01.463Z,19.00
2023-04-07T07:18:31.599Z,18.40
2023-04-07T07:20:59.945Z,18.10
2023-04-07T07:23:28.384Z,19.10
2023-04-07T07:25:56.790Z,18.90
2023-04-07T07:28:24.956Z,18.60
2023-04-07T07:30:53.649Z,19.00
2023-04-07T07:33:23.225Z,19.10
2023-04-07T07:35:51.768Z,19.90
2023-04-07T07:38:22.445Z,17.50
2023-04-07T07:40:50.501Z,16.20
2023-04-07T07:43:21.347Z,15.40
2023-04-07T07:45:49.339Z,15.00
2023-04-07T07:48:19.346Z,15.00
2023-04-07T07:50:48.373Z,13.00
2023-04-07T07:53:16.402Z,15.20
2023-04-07T07:55:46.666Z,14.60
2023-04-07T07:58:14.808Z,13.40
2023-04-07T08:00:43.267Z,12.90
2023-04-07T08:03:13.300Z,12.80
2023-04-07T08:05:42.820Z,13.70
2023-04-07T08:08:11.200Z,14.40
2023-04-07T08:10:39.192Z,14.20
2023-04-07T08:13:12.654Z,14.50
2023-04-07T08:15:41.740Z,13.00
2023-04-07T08:18:10.432Z,13.30
2023-04-07T08:20:38.888Z,13.50
2023-04-07T08:23:07.131Z,12.60
2023-04-07T08:25:36.656Z,12.10
2023-04-07T08:28:07.546Z,12.30
2023-04-07T08:30:36.409Z,11.70
2023-04-07T08:33:08.656Z,12.10
2023-04-07T08:35:36.571Z,10.80
2023-04-07T08:38:05.870Z,10.80
2023-04-07T08:40:33.772Z,13.00
2023-04-07T08:43:04.236Z,15.50
2023-04-07T08:45:32.153Z,13.70
2023-04-07T08:48:00.500Z,12.50
2023-04-07T08:50:28.949Z,12.30
2023-04-07T08:52:57.491Z,11.80
2023-04-07T08:55:26.475Z,11.40
2023-04-07T08:57:54.836Z,10.40
2023-04-07T09:00:23.319Z,10.20
2023-04-07T09:02:52.364Z,12.00
2023-04-07T09:05:21.606Z,10.90
2023-04-07T09:07:49.641Z,10.30
2023-04-07T09:10:23.765Z,10.10
2023-04-07T09:12:51.920Z,8.40
2023-04-07T09:15:20.019Z,8.10
2023-04-07T09:17:48.693Z,8.70
2023-04-07T09:20:16.757Z,9.00
2023-04-07T09:22:48.117Z,9.40
2023-04-07T09:25:24.110Z,8.80
2023-04-07T09:28:03.148Z,8.80
2023-04-07T09:30:32.800Z,7.90
2023-04-07T09:35:30.746Z,6.20
2023-04-07T09:38:06.948Z,6.90
2023-04-07T09:40:35.848Z,6.80
2023-04-07T09:43:05.430Z,6.50
2023-04-07T09:45:36.729Z,5.80
2023-04-07T09:48:07.474Z,6.10
2023-04-07T09:50:42.215Z,5.80
2023-04-07T09:53:11.069Z,5.80
2023-04-07T09:55:39.993Z,5.30
2023-04-07T09:58:08.470Z,5.90
2023-04-07T10:00:37.338Z,6.00
2023-04-07T10:03:06.384Z,5.50
2023-04-07T10:05:36.836Z,7.70
2023-04-07T10:08:06.855Z,6.30
2023-04-07T10:13:06.147Z,5.90
2023-04-07T10:15:34.339Z,6.20
2023-04-07T10:18:03.461Z,6.00
2023-04-07T10:20:31.730Z,6.20
2023-04-07T10:23:02.772Z,5.90
2023-04-07T10:25:32.524Z,6.20
2023-04-07T10:28:03.623Z,6.20
2023-04-07T10:30:32.448Z,6.00
2023-04-07T10:33:18.789Z,6.30
2023-04-07T10:36:04.208Z,6.80
2023-04-07T10:38:32.991Z,7.10
2023-04-07T10:41:01.466Z,8.10
2023-04-07T10:43:48.166Z,7.30
2023-04-07T10:46:16.690Z,7.10
2023-04-07T10:48:44.724Z,8.20
2023-04-07T10:51:15.430Z,8.20
2023-04-07T10:54:17.001Z,8.00
2023-04-07T10:57:03.211Z,7.80
2023-04-07T10:59:33.126Z,8.00
2023-04-07T11:02:17.832Z,7.60
2023-04-07T11:04:47.096Z,7.80
2023-04-07T11:07:16.564Z,8.40
2023-04-07T11:09:44.776Z,9.00
2023-04-07T11:12:25.333Z,9.80
2023-04-07T11:17:24.796Z,9.50
2023-04-07T11:19:53.630Z,9.30
2023-04-07T11:22:29.898Z,11.10
2023-04-07T11:24:59.119Z,9.70
2023-04-07T11:27:28.644Z,9.30
2023-04-07T11:29:57.002Z,9.10
2023-04-07T11:32:26.412Z,9.10
2023-04-07T11:34:54.833Z,7.90
2023-04-07T11:37:29.297Z,7.40
2023-04-07T11:39:58.524Z,7.70
2023-04-07T11:42:40.075Z,7.70
2023-04-07T11:45:18.438Z,7.80
2023-04-07T11:47:47.002Z,7.70
2023-04-07T11:50:15.211Z,7.70
2023-04-07T11:52:43.936Z,7.30
2023-04-07T11:55:22.897Z,7.50
2023-04-07T11:57:54.063Z,7.50
2023-04-07T12:00:22.441Z,7.70
2023-04-07T12:02:51.661Z,7.80
2023-04-07T12:05:20.120Z,7.00
2023-04-07T12:07:54.595Z,7.10
2023-04-07T12:10:25.994Z,6.80
2023-04-07T12:12:58.140Z,6.30
2023-04-07T12:15:28.171Z,6.50
2023-04-07T12:17:56.890Z,6.10
2023-04-07T12:20:27.509Z,5.80
2023-04-07T12:22:58.977Z,5.40
2023-04-07T12:25:27.568Z,6.30
2023-04-07T12:28:02.586Z,6.20
2023-04-07T12:30:31.174Z,5.70
2023-04-07T12:32:59.866Z,5.10
2023-04-07T12:35:28.721Z,5.60
2023-04-07T12:37:57.228Z,6.00
2023-04-07T12:40:27.547Z,6.40
2023-04-07T12:42:58.315Z,6.50
2023-04-07T12:47:54.674Z,7.50
2023-04-07T12:50:23.201Z,7.80
2023-04-07T12:52:55.224Z,8.40
2023-04-07T12:55:23.644Z,8.30
2023-04-07T12:57:51.822Z,9.00
2023-04-07T13:00:20.887Z,8.60
2023-04-07T13:02:51.330Z,8.50
2023-04-07T13:05:19.951Z,8.70
2023-04-07T13:07:50.262Z,9.10
2023-04-07T13:10:18.837Z,8.80
2023-04-07T13:12:48.684Z,9.40
2023-04-07T13:15:17.642Z,10.20
2023-04-07T13:17:46.663Z,9.60
2023-04-07T13:20:19.340Z,9.40
2023-04-07T13:22:52.108Z,10.50
2023-04-07T13:25:28.954Z,11.00
2023-04-07T13:27:57.149Z,10.20
2023-04-07T13:30:26.337Z,9.90
2023-04-07T13:32:55.163Z,9.80
2023-04-07T13:35:23.511Z,10.40
2023-04-07T13:37:51.543Z,9.90
2023-04-07T13:40:19.874Z,9.70
2023-04-07T13:42:47.948Z,9.70
2023-04-07T13:45:16.513Z,9.70
2023-04-07T13:48:42.448Z,10.30
2023-04-07T13:51:11.032Z,9.40
2023-04-07T13:53:39.218Z,8.80
2023-04-07T13:56:08.815Z,10.00
2023-04-07T13:58:37.539Z,10.30
2023-04-07T14:01:06.150Z,10.50
2023-04-07T14:03:37.658Z,10.20
2023-04-07T14:06:05.968Z,10.80
2023-04-07T14:08:36.032Z,11.30
2023-04-07T14:11:04.073Z,11.20
2023-04-07T14:13:33.195Z,11.10
2023-04-07T14:16:02.669Z,11.20
2023-04-07T14:18:31.779Z,11.50
2023-04-07T14:21:01.700Z,11.10
2023-04-07T14:23:36.664Z,10.80
2023-04-07T14:26:06.206Z,10.50
2023-04-07T14:28:34.641Z,10.90
2023-04-07T14:31:02.640Z,10.90
2023-04-07T14:33:31.398Z,10.90
2023-04-07T14:35:59.477Z,11.80
2023-04-07T14:38:28.260Z,11.50
2023-04-07T14:40:56.785Z,12.10
2023-04-07T14:43:38.137Z,11.30
2023-04-07T14:46:07.816Z,12.30
2023-04-07T14:48:36.315Z,12.00
2023-04-07T14:51:09.659Z,12.00
2023-04-07T14:53:42.217Z,12.20
2023-04-07T14:58:40.951Z,11.10
2023-04-07T15:01:09.727Z,11.90
2023-04-07T15:03:39.394Z,12.60
2023-04-07T15:06:11.772Z,11.50
2023-04-07T15:08:40.867Z,11.80
2023-04-07T15:11:09.271Z,12.00
2023-04-07T15:13:37.964Z,11.00
2023-04-07T15:16:15.016Z,9.90
2023-04-07T15:18:44.834Z,11.30
2023-04-07T15:21:13.575Z,11.20
2023-04-07T15:23:42.140Z,10.10
2023-04-07T15:26:10.700Z,10.80
2023-04-07T15:28:42.257Z,10.00
2023-04-07T15:31:10.963Z,10.00
2023-04-07T15:33:40.567Z,10.10
2023-04-07T15:36:09.239Z,10.20
2023-04-07T15:38:40.314Z,9.50
2023-04-07T15:41:08.413Z,9.20
2023-04-07T15:43:37.638Z,9.40
2023-04-07T15:46:05.681Z,10.30
2023-04-07T15:48:34.995Z,9.60
2023-04-07T15:51:03.171Z,10.30
2023-04-07T15:53:32.088Z,10.10
2023-04-07T15:56:00.181Z,10.50
2023-04-07T15:58:29.215Z,9.30
2023-04-07T16:00:57.479Z,9.50
2023-04-07T16:03:28.500Z,7.60
2023-04-07T16:05:57.082Z,9.20
2023-04-07T16:08:25.321Z,9.00
2023-04-07T16:10:53.280Z,9.40
2023-04-07T16:13:21.246Z,9.40
2023-04-07T16:15:57.145Z,8.90
2023-04-07T16:18:25.378Z,9.30
2023-04-07T16:20:53.750Z,9.90
2023-04-07T16:23:27.678Z,9.90
2023-04-07T16:25:55.685Z,11.00
2023-04-07T16:28:23.713Z,11.10
2023-04-07T16:30:51.719Z,10.50
2023-04-07T16:33:25.953Z,11.40
2023-04-07T16:35:54.232Z,11.10
2023-04-07T16:38:27.420Z,11.20
2023-04-07T16:41:03.984Z,11.30
2023-04-07T16:43:36.788Z,11.40
2023-04-07T16:46:06.247Z,11.10
2023-04-07T16:48:34.386Z,11.10
2023-04-07T16:51:02.541Z,10.00
2023-04-07T16:53:30.724Z,9.10
2023-04-07T16:56:04.446Z,9.20
2023-04-07T16:58:33.699Z,9.90
2023-04-07T17:01:01.944Z,9.80
2023-04-07T17:03:32.141Z,10.20
2023-04-07T17:06:05.489Z,9.60
2023-04-07T17:08:38.315Z,10.20
2023-04-07T17:11:08.413Z,9.20
2023-04-07T17:13:36.687Z,10.50
2023-04-07T17:16:05.089Z,10.30
2023-04-07T17:18:35.031Z,10.40
2023-04-07T17:21:03.218Z,11.10
2023-04-07T17:23:34.600Z,10.80
2023-04-07T17:26:02.569Z,10.00
2023-04-07T17:28:31.152Z,10.50
2023-04-07T17:31:00.451Z,11.00
2023-04-07T17:33:31.338Z,11.90
2023-04-07T17:36:03.008Z,11.90
2023-04-07T17:38:31.988Z,12.80
2023-04-07T17:41:01.861Z,14.10
2023-04-07T17:43:33.905Z,14.50
2023-04-07T17:46:02.527Z,14.10
2023-04-07T17:48:33.390Z,14.70
2023-04-07T17:51:01.566Z,14.60
2023-04-07T17:53:31.285Z,15.20
2023-04-07T17:56:01.842Z,14.40
2023-04-07T17:58:30.570Z,13.70
2023-04-07T18:00:58.782Z,12.80
2023-04-07T18:03:27.996Z,12.80
2023-04-07T18:05:56.599Z,11.80
2023-04-07T18:08:25.166Z,10.90
2023-04-07T18:11:00.545Z,11.20
2023-04-07T18:13:30.007Z,8.50
2023-04-07T18:15:59.750Z,9.70
2023-04-07T18:18:37.622Z,10.20
2023-04-07T18:21:07.229Z,10.60
2023-04-07T18:23:36.012Z,7.90
2023-04-07T18:26:05.218Z,9.70
2023-04-07T18:28:34.150Z,9.60
2023-04-07T18:31:07.823Z,10.10
2023-04-07T18:33:37.033Z,9.70
2023-04-07T18:36:09.395Z,10.40
2023-04-07T18:38:39.093Z,10.30
2023-04-07T18:41:07.237Z,10.00
2023-04-07T18:43:36.518Z,10.00
2023-04-07T18:46:04.394Z,9.40
2023-04-07T18:48:33.340Z,10.20
2023-04-07T18:51:01.586Z,10.20
2023-04-07T18:53:30.435Z,9.60
2023-04-07T18:55:58.841Z,9.40
2023-04-07T18:58:27.332Z,10.00
2023-04-07T19:00:55.414Z,10.00
2023-04-07T19:03:25.317Z,10.00
2023-04-07T19:05:55.347Z,9.80
2023-04-07T19:08:24.149Z,10.60
2023-04-07T19:10:52.598Z,10.50
2023-04-07T19:13:20.804Z,10.00
2023-04-07T19:15:50.150Z,10.20
2023-04-07T19:18:18.693Z,9.90
2023-04-07T19:20:47.281Z,9.90
2023-04-07T19:23:15.950Z,10.20
2023-04-07T19:25:45.759Z,10.90
2023-04-07T19:28:14.116Z,11.70
2023-04-07T19:30:42.250Z,11.10
2023-04-07T19:33:11.957Z,11.90
2023-04-07T19:35:42.640Z,12.40
2023-04-07T19:38:11.442Z,13.50
2023-04-07T19:40:39.847Z,14.40
2023-04-07T19:43:08.846Z,14.20
2023-04-07T19:45:37.096Z,14.90
2023-04-07T19:48:06.552Z,15.40
2023-04-07T19:50:43.483Z,14.20
2023-04-07T19:53:16.267Z,13.60
2023-04-07T19:55:46.881Z,12.50
2023-04-07T19:58:17.402Z,13.20
2023-04-07T20:00:50.745Z,11.90
2023-04-07T20:03:20.801Z,10.80
2023-04-07T20:05:49.675Z,10.30
2023-04-07T20:08:19.137Z,10.70
2023-04-07T20:10:52.351Z,11.50
2023-04-07T20:13:21.177Z,10.80
2023-04-07T20:15:49.990Z,11.30
2023-04-07T20:18:18.747Z,10.70
2023-04-07T20:20:50.736Z,12.30
2023-04-07T20:23:22.291Z,10.30
2023-04-07T20:25:50.871Z,9.90
2023-04-07T20:28:19.109Z,10.30
2023-04-07T20:30:48.061Z,9.40
2023-04-07T20:33:16.765Z,10.40
2023-04-07T20:35:45.676Z,11.00
2023-04-07T20:38:14.481Z,11.40
2023-04-07T20:40:45.582Z,11.60
2023-04-07T20:43:14.458Z,11.60
2023-04-07T20:45:43.119Z,11.50
2023-04-07T20:48:11.445Z,11.80
2023-04-07T20:50:40.231Z,11.10
2023-04-07T20:53:17.623Z,11.40
2023-04-07T20:55:46.855Z,9.30
2023-04-07T20:58:15.038Z,12.30
2023-04-07T21:00:46.061Z,12.30
2023-04-07T21:03:15.043Z,13.50
2023-04-07T21:05:45.008Z,13.80
2023-04-07T21:08:14.689Z,13.70
2023-04-07T21:10:44.082Z,14.00
2023-04-07T21:13:12.697Z,13.10
2023-04-07T21:15:43.994Z,12.60
2023-04-07T21:18:13.116Z,12.10
2023-04-07T21:20:41.338Z,11.80
2023-04-07T21:23:09.937Z,11.50
2023-04-07T21:25:40.529Z,11.10
2023-04-07T21:28:11.963Z,11.10
2023-04-07T21:30:42.094Z,10.10
2023-04-07T21:33:13.577Z,10.80
2023-04-07T21:35:42.715Z,10.30
2023-04-07T21:38:11.299Z,10.40
2023-04-07T21:40:41.568Z,9.80
2023-04-07T21:43:10.513Z,10.00
2023-04-07T21:45:41.079Z,9.90
2023-04-07T21:48:09.612Z,10.20
2023-04-07T21:50:38.211Z,10.90
2023-04-07T21:53:09.556Z,10.50
2023-04-07T21:55:38.651Z,10.80
2023-04-07T21:58:07.386Z,10.00
2023-04-07T22:00:36.567Z,10.00
2023-04-07T22:03:07.327Z,10.60
2023-04-07T22:05:37.512Z,10.10
2023-04-07T22:08:06.718Z,10.30
2023-04-07T22:10:34.866Z,9.80
2023-04-07T22:13:07.116Z,10.20
2023-04-07T22:15:36.279Z,10.30
2023-04-07T22:18:04.898Z,10.10
2023-04-07T22:20:33.711Z,10.40
2023-04-07T22:23:02.238Z,10.30
2023-04-07T22:25:30.356Z,10.50
2023-04-07T22:28:00.246Z,10.30
2023-04-07T22:30:28.682Z,10.90
2023-04-07T22:32:57.940Z,9.90
2023-04-07T22:35:26.460Z,10.70
2023-04-07T22:37:54.879Z,11.30
2023-04-07T22:40:23.215Z,11.40
2023-04-07T22:42:51.276Z,11.40
2023-04-07T22:45:19.661Z,11.50
2023-04-07T22:47:49.274Z,11.10
2023-04-07T22:50:17.570Z,12.20
2023-04-07T22:52:48.861Z,9.60
2023-04-07T22:55:17.076Z,11.90
2023-04-07T22:57:45.589Z,11.70
2023-04-07T23:00:13.908Z,13.10
2023-04-07T23:02:43.422Z,12.10
2023-04-07T23:05:12.018Z,12.10
2023-04-07T23:07:40.149Z,13.00
2023-04-07T23:10:10.721Z,11.60
2023-04-07T23:12:40.840Z,8.70
2023-04-07T23:15:09.816Z,12.20
2023-04-07T23:17:39.403Z,12.00
2023-04-07T23:20:08.276Z,12.00
2023-04-07T23:22:36.297Z,12.00
2023-04-07T23:25:07.047Z,12.10
2023-04-07T23:27:35.680Z,9.60
2023-04-07T23:30:04.973Z,12.80
2023-04-07T23:32:33.835Z,13.60
2023-04-07T23:35:02.802Z,13.70
2023-04-07T23:37:31.504Z,14.50
2023-04-07T23:39:59.614Z,13.90
2023-04-07T23:42:28.078Z,13.70
2023-04-07T23:44:56.315Z,14.30
2023-04-07T23:47:25.680Z,15.30
2023-04-07T23:49:54.512Z,15.20
2023-04-07T23:52:23.714Z,15.00
2023-04-07T23:54:57.026Z,15.90
2023-04-07T23:57:26.013Z,15.20
2023-04-07T23:59:54.166Z,15.40
